Burnside, Iowa
Current Conditions -  °F | °C
As of 4:55 AM on Thursday 23 Oct 2014 (Local Time) from KEBS Reporting Station
Light Rain Light Rain  
Wind Chill: 52°   Ceiling: 1200
Heat Index: 52°   Visibility: 3mi
Dew Point: 52°   Wind: 9mph
Humidity: 100%   Direction: 180°S
Pressure: 30.01"   Gusts: NA
Location:  42.35°N, 94.11°W
Report Text: KEBS 230955Z AUTO 18008KT 3SM -RA FEW003 BKN012 OVC049 11/11 A3001 RMK AO2 P0008
Loading
Personal Weather Stations






























Interactive Weather Map
Tropical Storm Tracking
New forecast layout! Learn more

10-Day Weather Forecast

Advertisements
Track Severe Weather on mobile